createdAt,value
2023-02-18T00:01:48.530Z,99486.79
2023-02-18T00:06:54.105Z,99496.90
2023-02-18T00:11:59.694Z,99513.09
2023-02-18T00:17:05.829Z,99523.62
2023-02-18T00:22:11.741Z,99536.41
2023-02-18T00:27:17.676Z,99546.90
2023-02-18T00:32:23.432Z,99546.67
2023-02-18T00:37:29.104Z,99544.96
2023-02-18T00:42:35.336Z,99547.67
2023-02-18T00:47:41.050Z,99546.48
2023-02-18T00:52:47.065Z,99545.65
2023-02-18T00:57:52.801Z,99540.89
2023-02-18T01:02:58.436Z,99539.81
2023-02-18T01:08:05.661Z,99550.15
2023-02-18T01:13:12.080Z,99558.43
2023-02-18T01:18:18.954Z,99550.06
2023-02-18T01:23:25.288Z,99565.30
2023-02-18T01:28:30.988Z,99553.63
2023-02-18T01:33:36.758Z,99545.34
2023-02-18T01:38:42.600Z,99551.05
2023-02-18T01:43:48.303Z,99543.29
2023-02-18T01:48:58.695Z,99533.54
2023-02-18T01:54:09.622Z,99535.31
2023-02-18T01:59:18.240Z,99531.92
2023-02-18T02:04:24.279Z,99530.81
2023-02-18T02:09:32.172Z,99537.81
2023-02-18T02:14:51.044Z,99535.86
2023-02-18T02:20:36.371Z,99524.99
2023-02-18T02:26:06.527Z,99526.95
2023-02-18T02:31:39.922Z,99520.45
2023-02-18T02:36:50.611Z,99523.27
2023-02-18T02:42:08.872Z,99531.98
2023-02-18T02:47:25.827Z,99532.73
2023-02-18T02:52:37.673Z,99527.09
2023-02-18T02:57:52.278Z,99534.16
2023-02-18T03:03:25.069Z,99549.15
2023-02-18T03:08:47.201Z,99553.98
2023-02-18T03:14:02.869Z,99556.17
2023-02-18T03:19:20.246Z,99562.97
2023-02-18T03:24:30.636Z,99569.73
2023-02-18T03:29:37.050Z,99565.08
2023-02-18T03:34:49.011Z,99576.17
2023-02-18T03:39:59.896Z,99573.00
2023-02-18T03:45:07.468Z,99573.05
2023-02-18T03:50:13.655Z,99576.52
2023-02-18T03:55:19.662Z,99581.34
2023-02-18T04:00:25.381Z,99584.78
2023-02-18T04:05:31.080Z,99583.95
2023-02-18T04:10:36.920Z,99582.97
2023-02-18T04:15:42.804Z,99581.86
2023-02-18T04:20:48.293Z,99585.28
2023-02-18T04:25:54.360Z,99592.09
2023-02-18T04:31:00.133Z,99594.37
2023-02-18T04:36:07.332Z,99594.08
2023-02-18T04:41:13.385Z,99583.09
2023-02-18T04:46:19.328Z,99610.62
2023-02-18T04:51:25.024Z,99612.40
2023-02-18T04:56:30.780Z,99616.02
2023-02-18T05:01:36.704Z,99614.81
2023-02-18T05:06:43.155Z,99620.84
2023-02-18T05:11:48.937Z,99619.14
2023-02-18T05:16:54.644Z,99615.21
2023-02-18T05:22:00.276Z,99625.58
2023-02-18T05:27:06.083Z,99632.52
2023-02-18T05:32:12.160Z,99638.44
2023-02-18T05:37:18.790Z,99647.30
2023-02-18T05:42:24.360Z,99655.44
2023-02-18T05:47:29.935Z,99669.64
2023-02-18T05:52:35.510Z,99663.96
2023-02-18T05:57:41.291Z,99654.48
2023-02-18T06:02:47.044Z,99648.65
2023-02-18T06:07:54.748Z,99660.39
2023-02-18T06:13:02.580Z,99669.01
2023-02-18T06:18:08.959Z,99671.05
2023-02-18T06:23:15.074Z,99681.17
2023-02-18T06:28:20.631Z,99695.25
2023-02-18T06:33:26.251Z,99704.34
2023-02-18T06:38:31.814Z,99711.36
2023-02-18T06:43:37.855Z,99717.52
2023-02-18T06:48:43.537Z,99728.33
2023-02-18T06:53:49.345Z,99720.85
2023-02-18T06:58:54.942Z,99720.91
2023-02-18T07:04:00.559Z,99729.96
2023-02-18T07:09:06.473Z,99726.80
2023-02-18T07:14:12.223Z,99732.72
2023-02-18T07:19:17.897Z,99733.80
2023-02-18T07:24:23.434Z,99738.84
2023-02-18T07:29:29.120Z,99732.98
2023-02-18T07:34:34.900Z,99744.71
2023-02-18T07:39:42.766Z,99741.36
2023-02-18T07:44:48.729Z,99743.24
2023-02-18T07:49:54.296Z,99742.72
2023-02-18T07:54:59.954Z,99747.52
2023-02-18T08:00:06.868Z,99752.27
2023-02-18T08:05:18.420Z,99750.34
2023-02-18T08:10:24.271Z,99757.36
2023-02-18T08:15:30.050Z,99760.20
2023-02-18T08:20:39.017Z,99752.06
2023-02-18T08:25:50.219Z,99759.60
2023-02-18T08:30:54.769Z,99758.85
2023-02-18T08:36:00.430Z,99758.44
2023-02-18T08:41:08.453Z,99763.02
2023-02-18T08:46:24.859Z,99763.61
2023-02-18T08:51:39.827Z,99760.37
2023-02-18T08:56:45.499Z,99764.91
2023-02-18T09:01:51.367Z,99777.59
2023-02-18T09:06:57.310Z,99787.19
2023-02-18T09:12:03.541Z,99790.81
2023-02-18T09:17:09.809Z,99779.83
2023-02-18T09:22:15.921Z,99785.03
2023-02-18T09:27:22.737Z,99793.23
2023-02-18T09:32:34.672Z,99794.43
2023-02-18T09:37:41.830Z,99799.82
2023-02-18T09:42:47.483Z,99805.86
2023-02-18T09:47:53.629Z,99813.14
2023-02-18T09:53:00.658Z,99818.50
2023-02-18T09:58:13.370Z,99830.71
2023-02-18T10:03:21.864Z,99826.39
2023-02-18T10:08:30.131Z,99827.52
2023-02-18T10:13:35.997Z,99834.12
2023-02-18T10:18:45.453Z,99832.55
2023-02-18T10:23:59.118Z,99831.68
2023-02-18T10:29:12.052Z,99832.77
2023-02-18T10:34:24.680Z,99831.81
2023-02-18T10:39:44.930Z,99825.06
2023-02-18T10:45:03.664Z,99818.91
2023-02-18T10:50:37.933Z,99822.54
2023-02-18T10:55:46.035Z,99812.33
2023-02-18T11:00:52.385Z,99805.59
2023-02-18T11:05:59.064Z,99800.95
2023-02-18T11:11:16.058Z,99806.27
2023-02-18T11:16:24.391Z,99807.85
2023-02-18T11:21:35.261Z,99800.13
2023-02-18T11:26:41.628Z,99803.42
2023-02-18T11:31:49.940Z,99797.14
2023-02-18T11:36:57.395Z,99793.19
2023-02-18T11:42:05.491Z,99790.25
2023-02-18T11:47:23.439Z,99793.59
2023-02-18T11:52:33.946Z,99785.44
2023-02-18T11:57:43.955Z,99783.06
2023-02-18T12:02:51.319Z,99781.90
2023-02-18T12:08:05.211Z,99775.23
2023-02-18T12:13:25.367Z,99769.81
2023-02-18T12:18:45.092Z,99770.59
2023-02-18T12:24:04.307Z,99766.84
2023-02-18T12:29:33.676Z,99757.16
2023-02-18T12:35:00.823Z,99766.41
2023-02-18T12:40:22.276Z,99760.99
2023-02-18T12:45:56.548Z,99748.25
2023-02-18T12:51:17.372Z,99744.88
2023-02-18T12:56:50.279Z,99734.13
2023-02-18T13:02:12.051Z,99727.31
2023-02-18T13:07:38.129Z,99743.03
2023-02-18T13:12:51.918Z,99728.30
2023-02-18T13:18:01.495Z,99718.12
2023-02-18T13:23:14.826Z,99712.40
2023-02-18T13:28:27.216Z,99710.58
2023-02-18T13:33:41.408Z,99719.70
2023-02-18T13:38:58.565Z,99719.10
2023-02-18T13:44:09.523Z,99721.79
2023-02-18T13:49:18.397Z,99721.55
2023-02-18T13:54:28.945Z,99719.74
2023-02-18T13:59:38.596Z,99716.05
2023-02-18T14:04:53.385Z,99717.45
2023-02-18T14:10:00.371Z,99716.21
2023-02-18T14:15:55.429Z,99716.02
2023-02-18T14:21:22.433Z,99714.31
2023-02-18T14:26:32.905Z,99707.67
2023-02-18T14:31:46.467Z,99700.55
2023-02-18T14:37:05.306Z,99694.09
2023-02-18T14:42:24.955Z,99682.25
2023-02-18T14:47:46.247Z,99677.21
2023-02-18T14:52:56.551Z,99668.58
2023-02-18T14:58:05.944Z,99669.48
2023-02-18T15:03:16.168Z,99668.98
2023-02-18T15:08:23.674Z,99673.64
2023-02-18T15:13:31.967Z,99688.27
2023-02-18T15:18:41.304Z,99698.11
2023-02-18T15:23:48.664Z,99697.60
2023-02-18T15:29:01.188Z,99701.58
2023-02-18T15:34:27.233Z,99706.94
2023-02-18T15:39:33.170Z,99711.31
2023-02-18T15:44:45.315Z,99710.28
2023-02-18T15:49:54.648Z,99709.81
2023-02-18T15:55:05.317Z,99714.41
2023-02-18T16:00:20.052Z,99706.27
2023-02-18T16:05:30.340Z,99711.52
2023-02-18T16:10:50.060Z,99715.55
2023-02-18T16:15:55.817Z,99711.67
2023-02-18T16:21:07.266Z,99712.63
2023-02-18T16:26:22.466Z,99709.05
2023-02-18T16:31:28.329Z,99712.56
2023-02-18T16:36:34.281Z,99716.09
2023-02-18T16:41:39.852Z,99723.03
2023-02-18T16:46:45.657Z,99726.52
2023-02-18T16:51:51.275Z,99731.59
2023-02-18T16:56:57.086Z,99730.52
2023-02-18T17:02:03.343Z,99730.92
2023-02-18T17:07:11.228Z,99726.48
2023-02-18T17:12:16.832Z,99722.90
2023-02-18T17:17:23.631Z,99723.04
2023-02-18T17:22:29.218Z,99706.53
2023-02-18T17:27:34.821Z,99702.27
2023-02-18T17:32:40.574Z,99707.63
2023-02-18T17:37:46.207Z,99708.49
2023-02-18T17:42:53.727Z,99713.33
2023-02-18T17:48:00.812Z,99710.24
2023-02-18T17:53:07.682Z,99710.91
2023-02-18T17:58:14.850Z,99709.87
2023-02-18T18:03:21.477Z,99708.69
2023-02-18T18:08:27.297Z,99699.94
2023-02-18T18:13:33.647Z,99683.07
2023-02-18T18:18:39.381Z,99675.50
2023-02-18T18:23:45.032Z,99665.05
2023-02-18T18:28:51.036Z,99672.45
2023-02-18T18:33:57.277Z,99676.55
2023-02-18T18:39:02.897Z,99669.13
2023-02-18T18:44:09.664Z,99658.17
2023-02-18T18:49:15.200Z,99656.31
2023-02-18T18:54:20.862Z,99659.98
2023-02-18T18:59:26.480Z,99668.85
2023-02-18T19:04:32.253Z,99682.15
2023-02-18T19:09:37.895Z,99692.63
2023-02-18T19:14:43.609Z,99702.04
2023-02-18T19:19:49.202Z,99713.52
2023-02-18T19:24:54.752Z,99719.01
2023-02-18T19:30:00.335Z,99716.30
2023-02-18T19:35:06.513Z,99719.98
2023-02-18T19:40:15.256Z,99730.02
2023-02-18T19:45:22.487Z,99742.59
2023-02-18T19:50:32.998Z,99764.77
2023-02-18T19:55:38.668Z,99781.27
2023-02-18T20:00:44.555Z,99784.83
2023-02-18T20:05:50.245Z,99789.06
2023-02-18T20:10:59.437Z,99802.61
2023-02-18T20:16:07.778Z,99812.38
2023-02-18T20:21:15.935Z,99825.95
2023-02-18T20:26:23.747Z,99826.44
2023-02-18T20:31:29.762Z,99825.25
2023-02-18T20:36:35.902Z,99826.09
2023-02-18T20:41:42.167Z,99825.39
2023-02-18T20:46:51.648Z,99829.14
2023-02-18T20:52:20.983Z,99833.09
2023-02-18T20:57:26.976Z,99845.44
2023-02-18T21:02:56.128Z,99849.39
2023-02-18T21:08:01.834Z,99857.46
2023-02-18T21:13:07.467Z,99862.98
2023-02-18T21:18:13.158Z,99865.89
2023-02-18T21:23:18.921Z,99868.63
2023-02-18T21:28:24.600Z,99872.77
2023-02-18T21:33:31.289Z,99865.05
2023-02-18T21:38:36.921Z,99879.93
2023-02-18T21:43:46.276Z,99880.91
2023-02-18T21:49:10.864Z,99890.44
2023-02-18T21:54:18.584Z,99896.85
2023-02-18T21:59:27.184Z,99913.88
2023-02-18T22:04:36.132Z,99937.41
2023-02-18T22:09:42.078Z,99954.41
2023-02-18T22:14:48.023Z,99965.90
2023-02-18T22:19:53.602Z,99965.90
2023-02-18T22:24:59.400Z,99975.00
2023-02-18T22:30:06.343Z,99985.29
2023-02-18T22:35:11.996Z,99987.85
2023-02-18T22:40:18.169Z,99992.30
2023-02-18T22:45:23.749Z,99998.31
2023-02-18T22:50:29.414Z,100003.46
2023-02-18T22:55:35.062Z,100010.51
2023-02-18T23:00:40.633Z,100006.55
2023-02-18T23:05:46.573Z,100008.63
2023-02-18T23:11:03.170Z,100003.64
2023-02-18T23:16:13.461Z,100017.04
2023-02-18T23:21:21.226Z,100025.45
2023-02-18T23:26:27.260Z,100039.17
2023-02-18T23:31:37.863Z,100043.46
2023-02-18T23:36:44.702Z,100040.55
2023-02-18T23:41:51.017Z,100045.86
2023-02-18T23:47:14.145Z,100053.23
2023-02-18T23:52:19.815Z,100053.08
2023-02-18T23:57:25.453Z,100055.64
